Edgewood, Washington
Current Conditions -  °F | °C
As of 9:58 PM on Tuesday 21 Oct 2014 (Local Time) from KTCM Reporting Station
Broken Clouds Broken Clouds  
Wind Chill: 59°   Ceiling: 9500
Heat Index: 59°   Visibility: 10mi
Dew Point: 48°   Wind: 14mph
Humidity: 66%   Direction: 170°S
Pressure: 29.79"   Gusts: NA
Location:  47.2018°N, 122.233°W
Report Text: KTCM 220458Z AUTO 17012KT 10SM BKN095 15/09 A2979 RMK AO2 SLP091 T01490087 $
Loading
Personal Weather Stations






























Interactive Weather Map New forecast layout! Learn more

10-Day Weather Forecast

Advertisements
Track Severe Weather on mobile